sensor_id;sensor_type;location;lat;lon;timestamp;pressure;altitude;pressure_sealevel;temperature
40199;BMP280;25906;43.536;26.068;2024-01-15T00:01:18;98256.91;;;0.99
40199;BMP280;25906;43.536;26.068;2024-01-15T00:04:04;98254.25;;;0.92
40199;BMP280;25906;43.536;26.068;2024-01-15T00:06:50;98254.53;;;0.83
40199;BMP280;25906;43.536;26.068;2024-01-15T00:09:35;98239.63;;;0.80
40199;BMP280;25906;43.536;26.068;2024-01-15T00:12:21;98255.59;;;0.75
40199;BMP280;25906;43.536;26.068;2024-01-15T00:15:09;98244.97;;;0.94
40199;BMP280;25906;43.536;26.068;2024-01-15T00:17:57;98249.88;;;1.03
40199;BMP280;25906;43.536;26.068;2024-01-15T00:20:49;98242.47;;;1.12
40199;BMP280;25906;43.536;26.068;2024-01-15T00:23:39;98243.97;;;1.13
40199;BMP280;25906;43.536;26.068;2024-01-15T00:26:25;98233.22;;;1.22
40199;BMP280;25906;43.536;26.068;2024-01-15T00:29:10;98238.88;;;1.34
40199;BMP280;25906;43.536;26.068;2024-01-15T00:31:56;98241.34;;;1.09
40199;BMP280;25906;43.536;26.068;2024-01-15T00:34:44;98233.84;;;1.04
40199;BMP280;25906;43.536;26.068;2024-01-15T00:37:29;98205.91;;;0.94
40199;BMP280;25906;43.536;26.068;2024-01-15T00:40:15;98236.81;;;0.99
40199;BMP280;25906;43.536;26.068;2024-01-15T00:43:00;98238.66;;;0.95
40199;BMP280;25906;43.536;26.068;2024-01-15T00:45:47;98231.94;;;0.94
40199;BMP280;25906;43.536;26.068;2024-01-15T00:48:32;98234.47;;;0.84
40199;BMP280;25906;43.536;26.068;2024-01-15T00:51:22;98227.75;;;0.83
40199;BMP280;25906;43.536;26.068;2024-01-15T00:54:08;98231.00;;;0.69
40199;BMP280;25906;43.536;26.068;2024-01-15T00:56:53;98225.75;;;0.65
40199;BMP280;25906;43.536;26.068;2024-01-15T00:59:42;98221.25;;;0.59
40199;BMP280;25906;43.536;26.068;2024-01-15T01:02:28;98229.06;;;0.59
40199;BMP280;25906;43.536;26.068;2024-01-15T01:05:13;98219.13;;;0.71
40199;BMP280;25906;43.536;26.068;2024-01-15T01:07:59;98222.09;;;0.70
40199;BMP280;25906;43.536;26.068;2024-01-15T01:10:44;98223.09;;;0.58
40199;BMP280;25906;43.536;26.068;2024-01-15T01:13:33;98221.53;;;0.47
40199;BMP280;25906;43.536;26.068;2024-01-15T01:16:18;98218.16;;;0.46
40199;BMP280;25906;43.536;26.068;2024-01-15T01:19:04;98221.06;;;0.37
40199;BMP280;25906;43.536;26.068;2024-01-15T01:21:50;98218.53;;;0.45
40199;BMP280;25906;43.536;26.068;2024-01-15T01:24:36;98214.38;;;0.40
40199;BMP280;25906;43.536;26.068;2024-01-15T01:27:21;98211.78;;;0.40
40199;BMP280;25906;43.536;26.068;2024-01-15T01:30:13;98208.41;;;0.36
40199;BMP280;25906;43.536;26.068;2024-01-15T01:32:59;98204.72;;;0.40
40199;BMP280;25906;43.536;26.068;2024-01-15T01:35:47;98200.19;;;0.78
40199;BMP280;25906;43.536;26.068;2024-01-15T01:38:39;98192.03;;;0.83
40199;BMP280;25906;43.536;26.068;2024-01-15T01:41:29;98191.78;;;0.48
40199;BMP280;25906;43.536;26.068;2024-01-15T01:44:14;98197.00;;;0.48
40199;BMP280;25906;43.536;26.068;2024-01-15T01:47:00;98195.94;;;0.56
40199;BMP280;25906;43.536;26.068;2024-01-15T01:49:49;98193.47;;;0.73
40199;BMP280;25906;43.536;26.068;2024-01-15T01:52:38;98152.72;;;0.44
40199;BMP280;25906;43.536;26.068;2024-01-15T01:55:29;98194.25;;;0.77
40199;BMP280;25906;43.536;26.068;2024-01-15T01:58:15;98196.75;;;0.67
40199;BMP280;25906;43.536;26.068;2024-01-15T02:01:01;98187.44;;;0.66
40199;BMP280;25906;43.536;26.068;2024-01-15T02:03:46;98187.38;;;0.55
40199;BMP280;25906;43.536;26.068;2024-01-15T02:06:31;98186.34;;;0.63
40199;BMP280;25906;43.536;26.068;2024-01-15T02:09:20;98180.13;;;0.82
40199;BMP280;25906;43.536;26.068;2024-01-15T02:12:06;98170.16;;;0.91
40199;BMP280;25906;43.536;26.068;2024-01-15T02:14:53;98163.78;;;0.85
40199;BMP280;25906;43.536;26.068;2024-01-15T02:17:58;98165.56;;;0.74
40199;BMP280;25906;43.536;26.068;2024-01-15T02:20:43;98148.81;;;0.71
40199;BMP280;25906;43.536;26.068;2024-01-15T02:23:32;98164.44;;;0.71
40199;BMP280;25906;43.536;26.068;2024-01-15T02:26:17;98159.72;;;0.88
40199;BMP280;25906;43.536;26.068;2024-01-15T02:29:03;98159.66;;;0.81
40199;BMP280;25906;43.536;26.068;2024-01-15T02:31:50;98161.19;;;0.85
40199;BMP280;25906;43.536;26.068;2024-01-15T02:34:35;98151.47;;;0.78
40199;BMP280;25906;43.536;26.068;2024-01-15T02:37:21;98158.94;;;0.84
40199;BMP280;25906;43.536;26.068;2024-01-15T02:40:07;98149.97;;;0.81
40199;BMP280;25906;43.536;26.068;2024-01-15T02:42:55;98149.50;;;0.65
40199;BMP280;25906;43.536;26.068;2024-01-15T02:45:40;98155.09;;;0.67
40199;BMP280;25906;43.536;26.068;2024-01-15T02:48:26;98149.84;;;0.60
40199;BMP280;25906;43.536;26.068;2024-01-15T02:51:14;98146.84;;;0.58
40199;BMP280;25906;43.536;26.068;2024-01-15T02:54:00;98147.66;;;0.62
40199;BMP280;25906;43.536;26.068;2024-01-15T02:56:46;98143.44;;;0.47
40199;BMP280;25906;43.536;26.068;2024-01-15T02:59:31;98134.19;;;0.53
40199;BMP280;25906;43.536;26.068;2024-01-15T03:02:19;98130.91;;;0.63
40199;BMP280;25906;43.536;26.068;2024-01-15T03:05:09;98135.06;;;0.71
40199;BMP280;25906;43.536;26.068;2024-01-15T03:07:54;98140.16;;;0.57
40199;BMP280;25906;43.536;26.068;2024-01-15T03:10:40;98133.53;;;0.63
40199;BMP280;25906;43.536;26.068;2024-01-15T03:13:25;98129.53;;;0.83
40199;BMP280;25906;43.536;26.068;2024-01-15T03:16:11;98138.34;;;0.64
40199;BMP280;25906;43.536;26.068;2024-01-15T03:18:56;98137.53;;;0.57
40199;BMP280;25906;43.536;26.068;2024-01-15T03:21:42;98141.41;;;0.77
40199;BMP280;25906;43.536;26.068;2024-01-15T03:24:27;98131.38;;;0.79
40199;BMP280;25906;43.536;26.068;2024-01-15T03:27:13;98133.97;;;0.75
40199;BMP280;25906;43.536;26.068;2024-01-15T03:29:58;98128.72;;;0.68
40199;BMP280;25906;43.536;26.068;2024-01-15T03:32:44;98135.47;;;0.80
40199;BMP280;25906;43.536;26.068;2024-01-15T03:35:29;98141.06;;;0.78
40199;BMP280;25906;43.536;26.068;2024-01-15T03:38:16;98134.28;;;0.67
40199;BMP280;25906;43.536;26.068;2024-01-15T03:41:01;98123.81;;;0.60
40199;BMP280;25906;43.536;26.068;2024-01-15T03:43:49;98132.34;;;0.57
40199;BMP280;25906;43.536;26.068;2024-01-15T03:46:34;98127.47;;;0.52
40199;BMP280;25906;43.536;26.068;2024-01-15T03:49:23;98121.53;;;0.51
40199;BMP280;25906;43.536;26.068;2024-01-15T03:52:08;98131.22;;;0.58
40199;BMP280;25906;43.536;26.068;2024-01-15T03:54:54;98126.03;;;0.54
40199;BMP280;25906;43.536;26.068;2024-01-15T03:57:39;98122.63;;;0.50
40199;BMP280;25906;43.536;26.068;2024-01-15T04:00:27;98124.50;;;0.50
40199;BMP280;25906;43.536;26.068;2024-01-15T04:03:12;98120.03;;;0.47
40199;BMP280;25906;43.536;26.068;2024-01-15T04:05:58;98124.19;;;0.58
40199;BMP280;25906;43.536;26.068;2024-01-15T04:08:43;98125.75;;;0.70
40199;BMP280;25906;43.536;26.068;2024-01-15T04:11:29;98120.50;;;0.63
40199;BMP280;25906;43.536;26.068;2024-01-15T04:14:14;98118.22;;;0.58
40199;BMP280;25906;43.536;26.068;2024-01-15T04:17:00;98121.88;;;0.50
40199;BMP280;25906;43.536;26.068;2024-01-15T04:19:45;98124.44;;;0.43
40199;BMP280;25906;43.536;26.068;2024-01-15T04:22:34;98118.53;;;0.49
40199;BMP280;25906;43.536;26.068;2024-01-15T04:25:21;98119.63;;;0.45
40199;BMP280;25906;43.536;26.068;2024-01-15T04:28:07;98112.22;;;0.50
40199;BMP280;25906;43.536;26.068;2024-01-15T04:30:55;98118.66;;;0.63
40199;BMP280;25906;43.536;26.068;2024-01-15T04:33:41;98111.28;;;0.76
40199;BMP280;25906;43.536;26.068;2024-01-15T04:36:26;98117.31;;;0.91
40199;BMP280;25906;43.536;26.068;2024-01-15T04:39:12;98118.47;;;1.04
40199;BMP280;25906;43.536;26.068;2024-01-15T04:41:57;98116.22;;;0.99
40199;BMP280;25906;43.536;26.068;2024-01-15T04:44:43;98113.97;;;0.94
40199;BMP280;25906;43.536;26.068;2024-01-15T04:47:29;98112.09;;;0.87
40199;BMP280;25906;43.536;26.068;2024-01-15T04:50:14;98112.16;;;1.05
40199;BMP280;25906;43.536;26.068;2024-01-15T04:53:00;98107.56;;;0.81
40199;BMP280;25906;43.536;26.068;2024-01-15T04:55:45;98105.06;;;0.95
40199;BMP280;25906;43.536;26.068;2024-01-15T04:58:30;98104.59;;;0.82
40199;BMP280;25906;43.536;26.068;2024-01-15T05:01:16;98108.41;;;0.95
40199;BMP280;25906;43.536;26.068;2024-01-15T05:04:05;98098.97;;;0.73
40199;BMP280;25906;43.536;26.068;2024-01-15T05:06:50;98097.88;;;0.74
40199;BMP280;25906;43.536;26.068;2024-01-15T05:09:36;98095.41;;;0.95
40199;BMP280;25906;43.536;26.068;2024-01-15T05:12:21;98096.44;;;0.84
40199;BMP280;25906;43.536;26.068;2024-01-15T05:15:07;98103.91;;;0.89
40199;BMP280;25906;43.536;26.068;2024-01-15T05:17:59;98106.53;;;0.92
40199;BMP280;25906;43.536;26.068;2024-01-15T05:20:44;98109.78;;;0.71
40199;BMP280;25906;43.536;26.068;2024-01-15T05:23:31;98104.28;;;0.87
40199;BMP280;25906;43.536;26.068;2024-01-15T05:26:16;98100.63;;;1.06
40199;BMP280;25906;43.536;26.068;2024-01-15T05:29:02;98086.50;;;1.03
40199;BMP280;25906;43.536;26.068;2024-01-15T05:31:47;98091.06;;;1.28
40199;BMP280;25906;43.536;26.068;2024-01-15T05:34:35;98087.28;;;1.11
40199;BMP280;25906;43.536;26.068;2024-01-15T05:37:21;98086.81;;;0.88
40199;BMP280;25906;43.536;26.068;2024-01-15T05:40:06;98081.16;;;0.82
40199;BMP280;25906;43.536;26.068;2024-01-15T05:42:52;98077.06;;;0.81
40199;BMP280;25906;43.536;26.068;2024-01-15T05:45:42;98066.25;;;0.75
40199;BMP280;25906;43.536;26.068;2024-01-15T05:48:28;98066.97;;;0.69
40199;BMP280;25906;43.536;26.068;2024-01-15T05:51:14;98067.28;;;0.57
40199;BMP280;25906;43.536;26.068;2024-01-15T05:54:00;98056.53;;;0.62
40199;BMP280;25906;43.536;26.068;2024-01-15T05:56:52;98060.94;;;0.54
40199;BMP280;25906;43.536;26.068;2024-01-15T05:59:37;98061.34;;;0.60
40199;BMP280;25906;43.536;26.068;2024-01-15T06:02:23;98059.16;;;0.69
40199;BMP280;25906;43.536;26.068;2024-01-15T06:05:08;98062.13;;;0.67
40199;BMP280;25906;43.536;26.068;2024-01-15T06:07:54;98063.25;;;0.66
40199;BMP280;25906;43.536;26.068;2024-01-15T06:10:39;98058.47;;;0.79
40199;BMP280;25906;43.536;26.068;2024-01-15T06:13:25;98061.84;;;0.80
40199;BMP280;25906;43.536;26.068;2024-01-15T06:16:14;98057.75;;;0.89
40199;BMP280;25906;43.536;26.068;2024-01-15T06:19:03;98065.56;;;0.82
40199;BMP280;25906;43.536;26.068;2024-01-15T06:21:48;98073.41;;;0.96
40199;BMP280;25906;43.536;26.068;2024-01-15T06:24:37;98068.63;;;1.05
40199;BMP280;25906;43.536;26.068;2024-01-15T06:27:22;98070.91;;;1.10
40199;BMP280;25906;43.536;26.068;2024-01-15T06:30:08;98060.44;;;1.07
40199;BMP280;25906;43.536;26.068;2024-01-15T06:32:54;98061.59;;;1.20
40199;BMP280;25906;43.536;26.068;2024-01-15T06:35:39;98063.50;;;1.37
40199;BMP280;25906;43.536;26.068;2024-01-15T06:38:25;98066.53;;;1.57
40199;BMP280;25906;43.536;26.068;2024-01-15T06:41:13;98066.53;;;1.57
40199;BMP280;25906;43.536;26.068;2024-01-15T06:43:58;98065.03;;;1.49
40199;BMP280;25906;43.536;26.068;2024-01-15T06:46:44;98064.28;;;1.55
40199;BMP280;25906;43.536;26.068;2024-01-15T06:49:33;98056.47;;;1.59
40199;BMP280;25906;43.536;26.068;2024-01-15T06:52:18;98047.53;;;1.60
40199;BMP280;25906;43.536;26.068;2024-01-15T06:55:04;98044.19;;;1.70
40199;BMP280;25906;43.536;26.068;2024-01-15T06:57:51;98047.91;;;1.69
40199;BMP280;25906;43.536;26.068;2024-01-15T07:00:37;98057.97;;;1.78
40199;BMP280;25906;43.536;26.068;2024-01-15T07:03:24;98046.81;;;1.77
40199;BMP280;25906;43.536;26.068;2024-01-15T07:06:10;98049.44;;;1.74
40199;BMP280;25906;43.536;26.068;2024-01-15T07:08:56;98047.56;;;1.81
40199;BMP280;25906;43.536;26.068;2024-01-15T07:11:45;98047.16;;;1.86
40199;BMP280;25906;43.536;26.068;2024-01-15T07:14:32;98050.50;;;1.87
40199;BMP280;25906;43.536;26.068;2024-01-15T07:17:17;98061.69;;;2.02
40199;BMP280;25906;43.536;26.068;2024-01-15T07:20:03;98066.94;;;1.98
40199;BMP280;25906;43.536;26.068;2024-01-15T07:22:49;98060.97;;;1.98
40199;BMP280;25906;43.536;26.068;2024-01-15T07:25:34;98057.22;;;2.13
40199;BMP280;25906;43.536;26.068;2024-01-15T07:28:25;98059.78;;;2.34
40199;BMP280;25906;43.536;26.068;2024-01-15T07:31:15;98058.28;;;2.54
40199;BMP280;25906;43.536;26.068;2024-01-15T07:34:01;98051.13;;;2.69
40199;BMP280;25906;43.536;26.068;2024-01-15T07:36:49;98063.75;;;2.88
40199;BMP280;25906;43.536;26.068;2024-01-15T07:39:38;98052.47;;;2.98
40199;BMP280;25906;43.536;26.068;2024-01-15T07:42:24;98048.31;;;3.15
40199;BMP280;25906;43.536;26.068;2024-01-15T07:45:10;98037.03;;;3.25
40199;BMP280;25906;43.536;26.068;2024-01-15T07:47:56;98039.59;;;3.32
40199;BMP280;25906;43.536;26.068;2024-01-15T07:50:41;98030.28;;;3.35
40199;BMP280;25906;43.536;26.068;2024-01-15T07:53:27;98033.84;;;3.51
40199;BMP280;25906;43.536;26.068;2024-01-15T07:56:14;98024.31;;;3.79
40199;BMP280;25906;43.536;26.068;2024-01-15T07:59:02;98015.13;;;4.01
40199;BMP280;25906;43.536;26.068;2024-01-15T08:01:50;98020.16;;;4.22
40199;BMP280;25906;43.536;26.068;2024-01-15T08:04:37;98027.50;;;4.34
40199;BMP280;25906;43.536;26.068;2024-01-15T08:07:23;98044.72;;;4.35
40199;BMP280;25906;43.536;26.068;2024-01-15T08:10:09;98043.84;;;4.46
40199;BMP280;25906;43.536;26.068;2024-01-15T08:12:54;98043.84;;;4.46
40199;BMP280;25906;43.536;26.068;2024-01-15T08:15:44;98047.81;;;4.57
40199;BMP280;25906;43.536;26.068;2024-01-15T08:18:29;98058.28;;;4.57
40199;BMP280;25906;43.536;26.068;2024-01-15T08:21:14;98064.44;;;4.77
40199;BMP280;25906;43.536;26.068;2024-01-15T08:24:23;98059.00;;;4.92
40199;BMP280;25906;43.536;26.068;2024-01-15T08:27:08;98060.25;;;5.10
40199;BMP280;25906;43.536;26.068;2024-01-15T08:30:06;98051.28;;;5.35
40199;BMP280;25906;43.536;26.068;2024-01-15T08:32:52;98051.47;;;5.47
40199;BMP280;25906;43.536;26.068;2024-01-15T08:35:37;98041.94;;;5.57
40199;BMP280;25906;43.536;26.068;2024-01-15T08:38:23;98034.41;;;5.82
40199;BMP280;25906;43.536;26.068;2024-01-15T08:41:08;98028.31;;;6.08
40199;BMP280;25906;43.536;26.068;2024-01-15T08:43:54;98025.59;;;6.32
40199;BMP280;25906;43.536;26.068;2024-01-15T08:46:39;98026.75;;;6.50
40199;BMP280;25906;43.536;26.068;2024-01-15T08:49:25;98019.53;;;6.71
40199;BMP280;25906;43.536;26.068;2024-01-15T08:52:10;98011.66;;;6.71
40199;BMP280;25906;43.536;26.068;2024-01-15T08:54:57;98008.97;;;6.74
40199;BMP280;25906;43.536;26.068;2024-01-15T08:57:52;97995.09;;;6.90
40199;BMP280;25906;43.536;26.068;2024-01-15T09:00:37;97987.63;;;6.88
40199;BMP280;25906;43.536;26.068;2024-01-15T09:03:27;97978.00;;;7.14
40199;BMP280;25906;43.536;26.068;2024-01-15T09:06:13;97975.72;;;7.45
40199;BMP280;25906;43.536;26.068;2024-01-15T09:09:01;97974.31;;;7.57
40199;BMP280;25906;43.536;26.068;2024-01-15T09:11:48;97971.59;;;7.60
40199;BMP280;25906;43.536;26.068;2024-01-15T09:14:36;97948.63;;;7.61
40199;BMP280;25906;43.536;26.068;2024-01-15T09:17:21;97960.50;;;7.53
40199;BMP280;25906;43.536;26.068;2024-01-15T09:20:09;97962.03;;;7.37
40199;BMP280;25906;43.536;26.068;2024-01-15T09:22:55;97946.00;;;7.32
40199;BMP280;25906;43.536;26.068;2024-01-15T09:25:40;97949.47;;;7.29
40199;BMP280;25906;43.536;26.068;2024-01-15T09:28:26;97939.59;;;7.33
40199;BMP280;25906;43.536;26.068;2024-01-15T09:31:11;97938.34;;;7.37
40199;BMP280;25906;43.536;26.068;2024-01-15T09:33:57;97931.53;;;7.40
40199;BMP280;25906;43.536;26.068;2024-01-15T09:36:47;97931.78;;;7.58
40199;BMP280;25906;43.536;26.068;2024-01-15T09:39:34;97919.88;;;7.66
40199;BMP280;25906;43.536;26.068;2024-01-15T09:42:23;97908.16;;;7.83
40199;BMP280;25906;43.536;26.068;2024-01-15T09:45:10;97904.56;;;7.90
40199;BMP280;25906;43.536;26.068;2024-01-15T09:48:01;97899.72;;;7.89
40199;BMP280;25906;43.536;26.068;2024-01-15T09:50:49;97903.22;;;7.85
40199;BMP280;25906;43.536;26.068;2024-01-15T09:53:35;97894.13;;;7.99
40199;BMP280;25906;43.536;26.068;2024-01-15T09:56:23;97901.53;;;8.17
40199;BMP280;25906;43.536;26.068;2024-01-15T09:59:08;97890.44;;;8.22
40199;BMP280;25906;43.536;26.068;2024-01-15T10:01:57;97891.41;;;8.15
40199;BMP280;25906;43.536;26.068;2024-01-15T10:04:44;97888.38;;;8.17
40199;BMP280;25906;43.536;26.068;2024-01-15T10:07:30;97883.63;;;8.12
40199;BMP280;25906;43.536;26.068;2024-01-15T10:10:16;97878.56;;;8.17
40199;BMP280;25906;43.536;26.068;2024-01-15T10:13:02;97861.69;;;8.15
40199;BMP280;25906;43.536;26.068;2024-01-15T10:15:49;97865.28;;;8.21
40199;BMP280;25906;43.536;26.068;2024-01-15T10:18:34;97861.47;;;8.22
40199;BMP280;25906;43.536;26.068;2024-01-15T10:21:24;97857.03;;;8.31
40199;BMP280;25906;43.536;26.068;2024-01-15T10:24:11;97851.25;;;8.24
40199;BMP280;25906;43.536;26.068;2024-01-15T10:27:07;97853.75;;;8.40
40199;BMP280;25906;43.536;26.068;2024-01-15T10:29:53;97847.84;;;8.49
40199;BMP280;25906;43.536;26.068;2024-01-15T10:32:39;97839.22;;;8.48
40199;BMP280;25906;43.536;26.068;2024-01-15T10:35:32;97841.22;;;8.44
40199;BMP280;25906;43.536;26.068;2024-01-15T10:38:18;97840.78;;;8.58
40199;BMP280;25906;43.536;26.068;2024-01-15T10:41:07;97824.53;;;8.60
40199;BMP280;25906;43.536;26.068;2024-01-15T10:47:35;97815.72;;;8.75
40199;BMP280;25906;43.536;26.068;2024-01-15T10:50:24;97815.28;;;8.77
40199;BMP280;25906;43.536;26.068;2024-01-15T10:53:14;97802.28;;;8.83
40199;BMP280;25906;43.536;26.068;2024-01-15T10:56:04;97795.72;;;8.87
40199;BMP280;25906;43.536;26.068;2024-01-15T10:58:50;97790.66;;;9.02
40199;BMP280;25906;43.536;26.068;2024-01-15T11:01:36;97793.38;;;9.11
40199;BMP280;25906;43.536;26.068;2024-01-15T11:04:23;97789.56;;;9.12
40199;BMP280;25906;43.536;26.068;2024-01-15T11:07:10;97783.59;;;9.20
40199;BMP280;25906;43.536;26.068;2024-01-15T11:09:57;97787.47;;;9.29
40199;BMP280;25906;43.536;26.068;2024-01-15T11:12:47;97773.53;;;9.28
40199;BMP280;25906;43.536;26.068;2024-01-15T11:15:32;97753.94;;;9.38
40199;BMP280;25906;43.536;26.068;2024-01-15T11:18:42;97737.22;;;9.41
40199;BMP280;25906;43.536;26.068;2024-01-15T11:21:28;97731.13;;;9.53
40199;BMP280;25906;43.536;26.068;2024-01-15T11:24:40;97725.28;;;9.67
40199;BMP280;25906;43.536;26.068;2024-01-15T11:27:42;97716.78;;;9.73
40199;BMP280;25906;43.536;26.068;2024-01-15T11:30:31;97710.28;;;9.55
40199;BMP280;25906;43.536;26.068;2024-01-15T11:33:32;97712.38;;;9.70
40199;BMP280;25906;43.536;26.068;2024-01-15T11:36:18;97689.03;;;9.77
40199;BMP280;25906;43.536;26.068;2024-01-15T11:42:12;97687.00;;;9.81
40199;BMP280;25906;43.536;26.068;2024-01-15T11:44:58;97688.63;;;9.97
40199;BMP280;25906;43.536;26.068;2024-01-15T11:50:50;97697.75;;;10.23
40199;BMP280;25906;43.536;26.068;2024-01-15T11:53:37;97708.75;;;10.31
40199;BMP280;25906;43.536;26.068;2024-01-15T11:56:26;97706.13;;;10.40
40199;BMP280;25906;43.536;26.068;2024-01-15T11:59:11;97708.91;;;10.36
40199;BMP280;25906;43.536;26.068;2024-01-15T12:01:57;97701.56;;;10.31
40199;BMP280;25906;43.536;26.068;2024-01-15T12:04:42;97703.91;;;10.29
40199;BMP280;25906;43.536;26.068;2024-01-15T12:07:29;97687.91;;;10.14
40199;BMP280;25906;43.536;26.068;2024-01-15T12:10:20;97694.34;;;10.23
40199;BMP280;25906;43.536;26.068;2024-01-15T12:13:12;97685.06;;;10.54
40199;BMP280;25906;43.536;26.068;2024-01-15T12:16:10;97679.47;;;10.52
40199;BMP280;25906;43.536;26.068;2024-01-15T12:18:56;97689.78;;;10.59
40199;BMP280;25906;43.536;26.068;2024-01-15T12:21:45;97667.13;;;10.68
40199;BMP280;25906;43.536;26.068;2024-01-15T12:24:32;97664.59;;;10.73
40199;BMP280;25906;43.536;26.068;2024-01-15T12:27:17;97670.78;;;10.70
40199;BMP280;25906;43.536;26.068;2024-01-15T12:30:03;97667.97;;;10.74
40199;BMP280;25906;43.536;26.068;2024-01-15T12:32:49;97659.28;;;10.82
40199;BMP280;25906;43.536;26.068;2024-01-15T12:35:34;97659.31;;;11.06
40199;BMP280;25906;43.536;26.068;2024-01-15T12:38:20;97660.34;;;11.08
40199;BMP280;25906;43.536;26.068;2024-01-15T12:41:05;97655.59;;;10.89
40199;BMP280;25906;43.536;26.068;2024-01-15T12:43:51;97648.78;;;10.97
40199;BMP280;25906;43.536;26.068;2024-01-15T12:46:37;97643.81;;;10.90
40199;BMP280;25906;43.536;26.068;2024-01-15T12:49:23;97645.22;;;10.67
40199;BMP280;25906;43.536;26.068;2024-01-15T12:52:09;97644.00;;;10.77
40199;BMP280;25906;43.536;26.068;2024-01-15T12:54:56;97627.09;;;10.84
40199;BMP280;25906;43.536;26.068;2024-01-15T12:57:41;97613.25;;;10.89
40199;BMP280;25906;43.536;26.068;2024-01-15T13:00:27;97616.53;;;10.75
40199;BMP280;25906;43.536;26.068;2024-01-15T13:03:13;97619.94;;;10.66
40199;BMP280;25906;43.536;26.068;2024-01-15T13:05:58;97621.13;;;10.65
40199;BMP280;25906;43.536;26.068;2024-01-15T13:08:44;97618.59;;;10.71
40199;BMP280;25906;43.536;26.068;2024-01-15T13:11:29;97614.63;;;10.75
40199;BMP280;25906;43.536;26.068;2024-01-15T13:14:15;97602.88;;;10.67
40199;BMP280;25906;43.536;26.068;2024-01-15T13:17:01;97598.63;;;10.60
40199;BMP280;25906;43.536;26.068;2024-01-15T13:19:46;97592.19;;;10.52
40199;BMP280;25906;43.536;26.068;2024-01-15T13:22:32;97597.84;;;10.36
40199;BMP280;25906;43.536;26.068;2024-01-15T13:25:17;97598.44;;;10.40
40199;BMP280;25906;43.536;26.068;2024-01-15T13:28:06;97607.38;;;10.43
40199;BMP280;25906;43.536;26.068;2024-01-15T13:30:53;97602.66;;;10.47
40199;BMP280;25906;43.536;26.068;2024-01-15T13:33:39;97606.91;;;10.44
40199;BMP280;25906;43.536;26.068;2024-01-15T13:36:28;97601.78;;;10.41
40199;BMP280;25906;43.536;26.068;2024-01-15T13:39:14;97600.94;;;10.35
40199;BMP280;25906;43.536;26.068;2024-01-15T13:41:59;97600.19;;;10.25
40199;BMP280;25906;43.536;26.068;2024-01-15T13:44:45;97606.53;;;10.19
40199;BMP280;25906;43.536;26.068;2024-01-15T13:47:30;97598.59;;;10.19
40199;BMP280;25906;43.536;26.068;2024-01-15T13:50:16;97604.06;;;10.06
40199;BMP280;25906;43.536;26.068;2024-01-15T13:53:02;97596.41;;;9.90
40199;BMP280;25906;43.536;26.068;2024-01-15T13:55:48;97593.63;;;9.75
40199;BMP280;25906;43.536;26.068;2024-01-15T13:58:35;97598.81;;;9.79
40199;BMP280;25906;43.536;26.068;2024-01-15T14:01:20;97604.63;;;9.74
40199;BMP280;25906;43.536;26.068;2024-01-15T14:04:06;97588.34;;;9.66
40199;BMP280;25906;43.536;26.068;2024-01-15T14:06:51;97597.88;;;9.63
40199;BMP280;25906;43.536;26.068;2024-01-15T14:09:37;97590.84;;;9.60
40199;BMP280;25906;43.536;26.068;2024-01-15T14:12:22;97598.34;;;9.62
40199;BMP280;25906;43.536;26.068;2024-01-15T14:15:08;97595.28;;;9.54
40199;BMP280;25906;43.536;26.068;2024-01-15T14:17:54;97594.38;;;9.48
40199;BMP280;25906;43.536;26.068;2024-01-15T14:20:40;97585.72;;;9.48
40199;BMP280;25906;43.536;26.068;2024-01-15T14:23:25;97589.66;;;9.43
40199;BMP280;25906;43.536;26.068;2024-01-15T14:26:11;97587.75;;;9.35
40199;BMP280;25906;43.536;26.068;2024-01-15T14:28:56;97580.41;;;9.39
40199;BMP280;25906;43.536;26.068;2024-01-15T14:31:42;97583.19;;;9.35
40199;BMP280;25906;43.536;26.068;2024-01-15T14:34:27;97589.66;;;9.34
40199;BMP280;25906;43.536;26.068;2024-01-15T14:37:13;97586.81;;;9.19
40199;BMP280;25906;43.536;26.068;2024-01-15T14:39:58;97593.16;;;9.22
40199;BMP280;25906;43.536;26.068;2024-01-15T14:42:44;97591.94;;;9.14
40199;BMP280;25906;43.536;26.068;2024-01-15T14:45:29;97590.50;;;9.22
40199;BMP280;25906;43.536;26.068;2024-01-15T14:48:18;97585.78;;;9.17
40199;BMP280;25906;43.536;26.068;2024-01-15T14:51:04;97589.59;;;9.07
40199;BMP280;25906;43.536;26.068;2024-01-15T14:53:49;97584.03;;;9.14
40199;BMP280;25906;43.536;26.068;2024-01-15T14:56:35;97582.25;;;9.11
40199;BMP280;25906;43.536;26.068;2024-01-15T14:59:20;97587.94;;;9.00
40199;BMP280;25906;43.536;26.068;2024-01-15T15:02:06;97585.72;;;8.90
40199;BMP280;25906;43.536;26.068;2024-01-15T15:04:54;97590.00;;;8.96
40199;BMP280;25906;43.536;26.068;2024-01-15T15:07:41;97584.13;;;9.01
40199;BMP280;25906;43.536;26.068;2024-01-15T15:10:29;97574.59;;;8.95
40199;BMP280;25906;43.536;26.068;2024-01-15T15:13:15;97579.84;;;8.86
40199;BMP280;25906;43.536;26.068;2024-01-15T15:16:00;97578.34;;;8.75
40199;BMP280;25906;43.536;26.068;2024-01-15T15:18:46;97567.25;;;8.90
40199;BMP280;25906;43.536;26.068;2024-01-15T15:21:31;97569.59;;;8.88
40199;BMP280;25906;43.536;26.068;2024-01-15T15:24:17;97567.84;;;8.94
40199;BMP280;25906;43.536;26.068;2024-01-15T15:27:02;97570.78;;;8.96
40199;BMP280;25906;43.536;26.068;2024-01-15T15:29:48;97568.28;;;8.92
40199;BMP280;25906;43.536;26.068;2024-01-15T15:32:37;97559.63;;;8.92
40199;BMP280;25906;43.536;26.068;2024-01-15T15:35:24;97558.56;;;8.80
40199;BMP280;25906;43.536;26.068;2024-01-15T15:38:09;97558.00;;;8.85
40199;BMP280;25906;43.536;26.068;2024-01-15T15:40:58;97548.00;;;8.80
40199;BMP280;25906;43.536;26.068;2024-01-15T15:43:44;97546.66;;;8.66
40199;BMP280;25906;43.536;26.068;2024-01-15T15:46:30;97547.78;;;8.56
40199;BMP280;25906;43.536;26.068;2024-01-15T15:49:18;97541.06;;;8.64
40199;BMP280;25906;43.536;26.068;2024-01-15T15:52:04;97547.47;;;8.54
40199;BMP280;25906;43.536;26.068;2024-01-15T15:54:49;97552.75;;;8.54
40199;BMP280;25906;43.536;26.068;2024-01-15T15:57:35;97546.72;;;8.54
40199;BMP280;25906;43.536;26.068;2024-01-15T16:00:20;97544.69;;;8.49
40199;BMP280;25906;43.536;26.068;2024-01-15T16:03:06;97541.25;;;8.39
40199;BMP280;25906;43.536;26.068;2024-01-15T16:05:54;97535.81;;;8.34
40199;BMP280;25906;43.536;26.068;2024-01-15T16:08:39;97543.16;;;8.39